Time;durP1;ratioP1;P1;durP2;ratioP2;P2;SDS_P1;SDS_P2;PMS_P1;PMS_P2;Temp;Humidity;BMP_temperature;BMP_pressure;BME280_temperature;BME280_humidity;BME280_pressure;Samples;Min_cycle;Max_cycle;Signal;HPM_P1;HPM_P2
2022/01/02 00:00:48;;;;;;;0.20;0.20;;;12.60;99.90;;;;;;5010759;28;20057;-74
2022/01/02 00:03:19;;;;;;;0.63;0.50;;;12.60;99.90;;;;;;5012950;28;20064;-74
2022/01/02 00:05:45;;;;;;;0.13;0.13;;;12.60;99.90;;;;;;5012776;28;20029;-80
2022/01/02 00:08:11;;;;;;;0.00;0.00;;;12.60;99.90;;;;;;5012905;28;20026;-81
2022/01/02 00:10:47;;;;;;;0.00;0.00;;;12.60;99.90;;;;;;5012300;28;20034;-74
2022/01/02 00:13:31;;;;;;;0.98;0.45;;;12.70;99.90;;;;;;5012809;28;20080;-80
2022/01/02 00:16:06;;;;;;;0.03;0.03;;;12.60;99.90;;;;;;5012574;28;20040;-74
2022/01/02 00:18:35;;;;;;;0.00;0.00;;;12.70;99.90;;;;;;5012538;28;20026;-74
2022/01/02 00:21:10;;;;;;;0.22;0.22;;;12.70;99.90;;;;;;5012480;28;20374;-80
2022/01/02 00:23:59;;;;;;;0.20;0.20;;;12.80;99.90;;;;;;5012614;28;20026;-80
2022/01/02 00:26:36;;;;;;;0.10;0.10;;;12.90;99.90;;;;;;5012328;28;20018;-80
2022/01/02 00:29:04;;;;;;;0.25;0.25;;;12.90;99.90;;;;;;5011177;28;20049;-74
2022/01/02 00:31:31;;;;;;;0.65;0.38;;;12.90;99.90;;;;;;5011284;28;20054;-74
2022/01/02 00:33:57;;;;;;;0.03;0.03;;;12.90;99.90;;;;;;5011232;28;20029;-80
2022/01/02 00:36:22;;;;;;;0.52;0.40;;;12.90;99.90;;;;;;5015471;28;20030;-80
2022/01/02 00:38:48;;;;;;;0.57;0.57;;;12.90;99.90;;;;;;5015273;28;20033;-80
2022/01/02 00:41:20;;;;;;;0.70;0.70;;;13.00;99.90;;;;;;5016460;28;20026;-74
2022/01/02 00:43:58;;;;;;;0.55;0.30;;;13.00;99.90;;;;;;5016628;28;20021;-74
2022/01/02 00:46:26;;;;;;;0.75;0.75;;;13.00;99.90;;;;;;5016196;28;20048;-80
2022/01/02 00:48:58;;;;;;;0.30;0.30;;;13.10;99.90;;;;;;5014781;28;20053;-80
2022/01/02 00:51:47;;;;;;;1.08;0.35;;;13.00;99.90;;;;;;5014438;28;20409;-74
2022/01/02 00:54:17;;;;;;;2.63;1.17;;;13.00;99.90;;;;;;5016087;28;20440;-75
2022/01/02 00:56:46;;;;;;;0.00;0.00;;;13.00;99.90;;;;;;5016150;28;20026;-74
2022/01/02 00:59:34;;;;;;;0.10;0.10;;;13.00;99.90;;;;;;5015770;28;20018;-80
2022/01/02 01:02:03;;;;;;;0.30;0.30;;;12.90;99.90;;;;;;5016086;28;20020;-80
2022/01/02 01:04:36;;;;;;;0.15;0.15;;;12.80;99.90;;;;;;5016569;28;20557;-80
2022/01/02 01:07:05;;;;;;;0.00;0.00;;;12.90;99.90;;;;;;5017125;28;20568;-80
2022/01/02 01:09:31;;;;;;;0.03;0.03;;;12.90;99.90;;;;;;5016705;28;20030;-74
2022/01/02 01:11:59;;;;;;;0.85;0.40;;;12.90;99.90;;;;;;5015396;28;20516;-80
2022/01/02 01:14:26;;;;;;;0.10;0.08;;;12.90;99.90;;;;;;5019452;28;20022;-80
2022/01/02 01:16:53;;;;;;;0.10;0.10;;;12.90;99.90;;;;;;5017818;28;20037;-80
2022/01/02 01:19:19;;;;;;;0.30;0.30;;;13.00;99.90;;;;;;5017225;28;20145;-80
2022/01/02 01:21:46;;;;;;;1.75;0.17;;;13.00;99.90;;;;;;5016349;28;20045;-74
2022/01/02 01:24:11;;;;;;;0.70;0.70;;;12.90;99.90;;;;;;5015865;28;20030;-79
2022/01/02 01:26:38;;;;;;;1.08;0.47;;;13.00;99.90;;;;;;5015548;28;20026;-79
2022/01/02 01:29:04;;;;;;;0.08;0.08;;;13.10;99.90;;;;;;5014479;28;20030;-80
2022/01/02 01:31:29;;;;;;;0.00;0.00;;;13.10;99.90;;;;;;5011765;28;20431;-80
2022/01/02 01:33:55;;;;;;;0.00;0.00;;;13.10;99.90;;;;;;5014304;28;20018;-74
2022/01/02 01:36:20;;;;;;;0.30;0.20;;;13.10;99.90;;;;;;5015375;28;20129;-73
2022/01/02 01:38:46;;;;;;;0.10;0.10;;;13.10;99.90;;;;;;5021148;28;20448;-80
2022/01/02 01:41:33;;;;;;;4.68;1.20;;;13.20;99.90;;;;;;5014026;28;20018;-80
2022/01/02 01:44:22;;;;;;;0.03;0.03;;;13.30;99.90;;;;;;5014331;28;20060;-79
2022/01/02 01:46:51;;;;;;;0.47;0.25;;;13.30;99.90;;;;;;5013832;28;20492;-74
2022/01/02 01:49:19;;;;;;;0.17;0.00;;;13.30;99.90;;;;;;5013739;28;20025;-74
2022/01/02 01:51:46;;;;;;;0.80;0.80;;;13.30;99.90;;;;;;5013835;28;20022;-80
2022/01/02 01:54:12;;;;;;;0.25;0.25;;;13.30;99.90;;;;;;5013887;28;20069;-80
2022/01/02 01:56:38;;;;;;;0.03;0.03;;;13.30;99.90;;;;;;5013693;28;20026;-79
2022/01/02 01:59:05;;;;;;;9.23;2.65;;;13.40;99.90;;;;;;5013947;28;20029;-79
2022/01/02 02:01:31;;;;;;;0.32;0.32;;;13.40;99.90;;;;;;5012728;28;20083;-74
2022/01/02 02:03:58;;;;;;;0.00;0.00;;;13.30;99.90;;;;;;5013915;28;20030;-80
2022/01/02 02:06:23;;;;;;;2.63;0.88;;;13.30;99.90;;;;;;5012304;28;20389;-80
2022/01/02 02:08:52;;;;;;;0.40;0.40;;;13.30;99.90;;;;;;5013795;28;20022;-80
2022/01/02 02:11:19;;;;;;;0.10;0.10;;;13.20;99.90;;;;;;5007872;28;20030;-79
2022/01/02 02:13:45;;;;;;;0.20;0.20;;;13.10;99.90;;;;;;4994338;28;20063;-74
2022/01/02 02:16:11;;;;;;;0.08;0.08;;;13.00;99.90;;;;;;4993991;28;20563;-80
2022/01/02 02:18:36;;;;;;;3.13;1.25;;;12.80;99.90;;;;;;4993991;28;20034;-78
2022/01/02 02:21:02;;;;;;;0.60;0.50;;;12.70;99.90;;;;;;4993870;28;20023;-79
2022/01/02 02:23:28;;;;;;;0.28;0.28;;;12.50;99.90;;;;;;4993911;28;20470;-79
2022/01/02 02:25:54;;;;;;;0.22;0.22;;;12.40;99.90;;;;;;4997874;28;20022;-74
2022/01/02 02:28:20;;;;;;;0.80;0.80;;;12.20;99.90;;;;;;4969999;28;1226732;-79
2022/01/02 02:30:47;;;;;;;0.10;0.10;;;12.10;99.90;;;;;;5014662;28;20038;-80
2022/01/02 02:33:14;;;;;;;0.15;0.15;;;12.10;99.90;;;;;;5012814;28;20164;-75
2022/01/02 02:35:42;;;;;;;0.17;0.17;;;12.10;99.90;;;;;;5014134;28;20026;-80
2022/01/02 02:38:09;;;;;;;3.42;0.52;;;12.10;99.90;;;;;;5014040;28;20485;-80
2022/01/02 02:40:35;;;;;;;0.10;0.10;;;12.20;99.90;;;;;;5014162;28;20400;-75
2022/01/02 02:43:07;;;;;;;0.65;0.30;;;12.20;99.90;;;;;;5014289;28;20018;-75
2022/01/02 02:51:11;;;;;;;0.00;0.00;;;12.30;99.90;;;;;;5013706;28;20408;-80
2022/01/02 02:53:40;;;;;;;0.10;0.10;;;12.30;99.90;;;;;;5013901;28;20404;-74
2022/01/02 02:58:42;;;;;;;0.17;0.17;;;12.30;99.90;;;;;;5013194;28;20539;-74
2022/01/02 03:01:14;;;;;;;1.48;1.30;;;12.30;99.90;;;;;;5013865;28;20029;-74
2022/01/02 03:03:41;;;;;;;0.93;0.65;;;12.30;99.90;;;;;;5013901;28;20033;-80
2022/01/02 03:06:08;;;;;;;0.20;0.20;;;12.20;99.90;;;;;;5013573;28;20068;-74
2022/01/02 03:08:35;;;;;;;2.08;1.23;;;12.20;99.90;;;;;;5013716;28;20485;-74
2022/01/02 03:11:01;;;;;;;0.75;0.65;;;12.10;99.90;;;;;;5005180;28;20030;-81
2022/01/02 03:13:27;;;;;;;0.65;0.63;;;12.10;99.90;;;;;;4994346;28;20157;-81
2022/01/02 03:15:52;;;;;;;1.38;0.85;;;12.50;99.90;;;;;;4993967;28;20168;-74
2022/01/02 03:18:18;;;;;;;0.05;0.03;;;12.60;99.90;;;;;;4993727;28;20029;-74
2022/01/02 03:20:44;;;;;;;0.17;0.17;;;12.70;99.90;;;;;;4993886;28;20049;-74
2022/01/02 03:23:10;;;;;;;0.35;0.25;;;12.70;99.90;;;;;;4993748;28;20026;-73
2022/01/02 03:25:36;;;;;;;0.10;0.10;;;12.80;99.90;;;;;;4995408;28;20037;-81
2022/01/02 03:28:02;;;;;;;0.00;0.00;;;13.20;99.90;;;;;;5011981;28;20062;-81
2022/01/02 03:30:28;;;;;;;0.10;0.10;;;13.20;99.90;;;;;;5012670;28;20041;-74
2022/01/02 03:32:53;;;;;;;0.75;0.75;;;13.20;99.90;;;;;;5011985;28;20030;-74
2022/01/02 03:35:19;;;;;;;0.38;0.38;;;13.30;99.90;;;;;;5012963;28;20048;-81
2022/01/02 03:37:45;;;;;;;0.75;0.75;;;13.30;99.90;;;;;;5013348;28;20092;-81
2022/01/02 03:40:11;;;;;;;0.13;0.13;;;13.50;99.90;;;;;;5013166;28;20029;-81
2022/01/02 03:42:37;;;;;;;0.65;0.57;;;13.60;99.90;;;;;;5013187;28;20078;-80
2022/01/02 03:45:04;;;;;;;0.38;0.38;;;13.50;99.90;;;;;;5013219;28;20046;-73
2022/01/02 03:47:30;;;;;;;9.75;1.30;;;13.50;99.90;;;;;;5012928;28;20109;-80
2022/01/02 03:49:57;;;;;;;3.78;1.05;;;13.30;99.90;;;;;;5012950;28;20022;-81
2022/01/02 03:52:24;;;;;;;1.02;0.98;;;13.30;99.90;;;;;;5012338;28;20551;-81
2022/01/02 03:54:50;;;;;;;0.20;0.20;;;13.40;99.90;;;;;;5013012;28;20033;-80
2022/01/02 03:57:16;;;;;;;0.05;0.05;;;13.30;99.90;;;;;;5012873;28;20097;-74
2022/01/02 03:59:41;;;;;;;0.38;0.38;;;13.40;99.90;;;;;;5013012;28;20018;-74
2022/01/02 04:02:07;;;;;;;0.20;0.15;;;13.40;99.90;;;;;;5013037;28;20393;-81
2022/01/02 04:04:33;;;;;;;0.65;0.65;;;13.40;99.90;;;;;;5012805;28;20100;-80
2022/01/02 04:06:58;;;;;;;0.00;0.00;;;13.30;99.90;;;;;;5012757;28;20018;-81
2022/01/02 04:09:24;;;;;;;4.55;1.20;;;13.20;99.90;;;;;;5010106;28;20481;-74
2022/01/02 04:11:50;;;;;;;13.25;0.88;;;13.10;99.90;;;;;;5011202;28;20580;-81
2022/01/02 04:14:15;;;;;;;0.00;0.00;;;13.00;99.90;;;;;;5012817;28;20034;-81
2022/01/02 04:16:41;;;;;;;0.30;0.30;;;12.90;99.90;;;;;;5012034;28;20040;-81
2022/01/02 04:19:06;;;;;;;0.20;0.20;;;12.90;99.90;;;;;;5012655;28;20026;-74
2022/01/02 04:21:32;;;;;;;2.53;0.95;;;12.90;99.90;;;;;;5012382;28;20080;-81
2022/01/02 04:23:58;;;;;;;15.80;1.23;;;12.80;99.90;;;;;;5012781;28;20020;-74
2022/01/02 04:26:23;;;;;;;0.35;0.35;;;12.80;99.90;;;;;;5011863;28;20033;-80
2022/01/02 04:28:49;;;;;;;0.45;0.45;;;12.70;99.90;;;;;;5012516;28;20046;-81
2022/01/02 04:31:15;;;;;;;0.00;0.00;;;12.70;99.90;;;;;;5012715;28;20030;-81
2022/01/02 04:33:41;;;;;;;1.02;0.80;;;12.60;99.90;;;;;;5011355;28;20030;-80
2022/01/02 04:36:07;;;;;;;0.40;0.40;;;12.60;99.90;;;;;;5012172;28;20438;-74
2022/01/02 04:38:35;;;;;;;18.52;0.45;;;12.60;99.90;;;;;;5012473;28;20080;-74
2022/01/02 04:41:00;;;;;;;1.38;1.02;;;12.60;99.90;;;;;;5012626;28;20473;-81
2022/01/02 04:43:26;;;;;;;0.38;0.38;;;12.60;99.90;;;;;;5012591;28;20046;-81
2022/01/02 04:45:51;;;;;;;0.00;0.00;;;12.60;99.90;;;;;;5012474;28;20417;-81
2022/01/02 04:48:17;;;;;;;0.10;0.10;;;12.60;99.90;;;;;;5010987;28;20448;-80
2022/01/02 04:50:43;;;;;;;1.98;1.80;;;12.50;99.90;;;;;;4992263;28;20077;-74
2022/01/02 04:53:08;;;;;;;0.68;0.68;;;12.50;99.90;;;;;;4992565;28;20058;-81
2022/01/02 04:55:34;;;;;;;0.30;0.30;;;12.50;99.90;;;;;;4992761;28;20035;-81
2022/01/02 04:58:00;;;;;;;0.03;0.03;;;12.50;99.90;;;;;;4992497;28;20485;-81
2022/01/02 05:00:27;;;;;;;0.00;0.00;;;12.40;99.90;;;;;;4992695;28;20037;-81
2022/01/02 05:02:52;;;;;;;1.90;1.67;;;12.40;99.90;;;;;;4992785;28;20450;-74
2022/01/02 05:05:18;;;;;;;3.30;1.75;;;12.40;99.90;;;;;;4992450;28;20156;-74
2022/01/02 05:07:44;;;;;;;0.32;0.32;;;12.40;99.90;;;;;;4991573;28;20027;-81
2022/01/02 05:10:10;;;;;;;0.15;0.08;;;12.30;99.90;;;;;;4992233;28;20033;-81
2022/01/02 05:12:35;;;;;;;0.32;0.32;;;12.40;99.90;;;;;;4992478;28;20042;-81
2022/01/02 05:15:03;;;;;;;0.35;0.35;;;12.40;99.90;;;;;;4992942;28;20026;-74
2022/01/02 05:17:28;;;;;;;0.00;0.00;;;12.40;99.90;;;;;;4992414;28;20031;-74
2022/01/02 05:19:54;;;;;;;0.22;0.22;;;12.40;99.90;;;;;;4992566;28;20121;-81
2022/01/02 05:22:20;;;;;;;0.30;0.30;;;12.40;99.90;;;;;;4993693;28;20018;-81
2022/01/02 05:24:46;;;;;;;0.15;0.15;;;12.40;99.90;;;;;;4996232;28;20023;-81
2022/01/02 05:27:12;;;;;;;0.95;0.85;;;12.50;99.90;;;;;;5010437;28;20060;-74
2022/01/02 05:29:38;;;;;;;1.88;0.55;;;12.60;99.90;;;;;;5015710;28;20095;-74
2022/01/02 05:32:03;;;;;;;0.00;0.00;;;12.70;99.90;;;;;;5015724;28;20029;-81
2022/01/02 05:34:29;;;;;;;1.00;1.00;;;12.80;99.90;;;;;;5013971;28;20029;-81
2022/01/02 05:36:55;;;;;;;0.13;0.13;;;12.80;99.90;;;;;;5015283;28;20481;-81
2022/01/02 05:39:21;;;;;;;0.10;0.10;;;12.90;99.90;;;;;;5015440;28;20068;-81
2022/01/02 05:41:49;;;;;;;0.43;0.43;;;12.80;99.90;;;;;;5015502;28;20014;-74
2022/01/02 05:44:14;;;;;;;0.00;0.00;;;12.70;99.90;;;;;;5015436;28;20470;-74
2022/01/02 05:46:41;;;;;;;2.08;0.68;;;12.50;99.90;;;;;;5013968;28;20030;-81
2022/01/02 05:49:07;;;;;;;0.00;0.00;;;12.50;99.90;;;;;;5014579;28;20481;-81
2022/01/02 05:51:33;;;;;;;0.00;0.00;;;12.50;99.90;;;;;;5015162;28;20018;-81
2022/01/02 05:53:58;;;;;;;0.57;0.57;;;12.60;99.90;;;;;;5015035;28;20034;-74
2022/01/02 05:56:24;;;;;;;0.00;0.00;;;12.70;99.90;;;;;;5015003;28;20022;-74
2022/01/02 05:58:49;;;;;;;2.90;0.52;;;12.80;99.90;;;;;;5014612;28;20026;-81
2022/01/02 06:01:15;;;;;;;6.00;1.38;;;12.80;99.90;;;;;;5013921;28;20025;-74
2022/01/02 06:03:41;;;;;;;0.25;0.25;;;12.80;99.90;;;;;;5014738;28;20030;-81
2022/01/02 06:06:06;;;;;;;1.65;1.27;;;12.80;99.90;;;;;;5014733;28;20049;-81
2022/01/02 06:08:32;;;;;;;0.10;0.10;;;12.80;99.90;;;;;;5014980;28;20489;-74
2022/01/02 06:10:57;;;;;;;0.10;0.10;;;12.90;99.90;;;;;;5014718;28;20021;-81
2022/01/02 06:13:23;;;;;;;0.00;0.00;;;12.90;99.90;;;;;;5014760;28;20378;-82
2022/01/02 06:15:49;;;;;;;25.92;3.00;;;13.00;99.90;;;;;;5014547;28;20485;-81
2022/01/02 06:18:16;;;;;;;0.00;0.00;;;13.10;99.90;;;;;;5014485;28;20030;-82
2022/01/02 06:20:42;;;;;;;0.00;0.00;;;13.10;99.90;;;;;;5014627;28;20133;-74
2022/01/02 06:23:08;;;;;;;0.45;0.38;;;13.10;99.90;;;;;;5014452;28;20061;-74
2022/01/02 06:25:33;;;;;;;3.00;1.30;;;13.10;99.90;;;;;;5014622;28;20397;-81
2022/01/02 06:28:00;;;;;;;0.10;0.10;;;13.00;99.90;;;;;;5014258;28;20054;-81
2022/01/02 06:30:26;;;;;;;0.05;0.05;;;13.00;99.90;;;;;;5014512;28;20378;-81
2022/01/02 06:32:55;;;;;;;0.00;0.00;;;13.00;99.90;;;;;;5013195;28;20041;-82
2022/01/02 06:35:28;;;;;;;0.25;0.20;;;12.90;99.90;;;;;;5012611;28;20041;-74
2022/01/02 06:37:55;;;;;;;0.13;0.10;;;12.90;99.90;;;;;;5014379;28;20417;-81
2022/01/02 06:40:23;;;;;;;0.80;0.80;;;12.80;99.90;;;;;;5014224;28;20112;-81
2022/01/02 06:42:49;;;;;;;0.00;0.00;;;12.70;99.90;;;;;;5014329;28;20076;-81
2022/01/02 06:45:15;;;;;;;0.00;0.00;;;12.60;99.90;;;;;;5014221;28;20033;-74
2022/01/02 06:47:41;;;;;;;0.60;0.20;;;12.50;99.90;;;;;;5012698;28;20523;-74
2022/01/02 06:50:09;;;;;;;0.00;0.00;;;12.40;99.90;;;;;;5013283;28;20083;-74
2022/01/02 06:52:35;;;;;;;0.98;0.52;;;12.30;99.90;;;;;;5013805;28;20033;-81
2022/01/02 06:55:01;;;;;;;0.00;0.00;;;12.30;99.90;;;;;;5014133;28;20029;-81
2022/01/02 06:57:27;;;;;;;5.97;0.10;;;12.20;99.90;;;;;;5013990;28;20038;-74
2022/01/02 06:59:52;;;;;;;0.45;0.30;;;12.20;99.90;;;;;;5012914;28;20110;-74
2022/01/02 07:02:18;;;;;;;1.25;0.50;;;12.20;99.90;;;;;;5013869;28;20037;-77
2022/01/02 07:04:44;;;;;;;0.20;0.20;;;12.20;99.90;;;;;;5013894;28;20030;-81
2022/01/02 07:07:10;;;;;;;0.35;0.35;;;12.20;99.90;;;;;;5013856;28;20400;-82
2022/01/02 07:09:36;;;;;;;0.00;0.00;;;12.30;99.90;;;;;;5013721;28;20025;-81
2022/01/02 07:12:03;;;;;;;0.00;0.00;;;12.30;99.90;;;;;;5012282;28;20056;-74
2022/01/02 07:14:29;;;;;;;0.00;0.00;;;12.30;99.90;;;;;;5013674;28;20101;-74
2022/01/02 07:16:55;;;;;;;0.55;0.55;;;12.30;99.90;;;;;;5013364;28;20454;-74
2022/01/02 07:19:21;;;;;;;1.55;0.65;;;12.40;99.90;;;;;;5012289;28;20386;-80
2022/01/02 07:21:48;;;;;;;18.70;0.55;;;12.40;99.90;;;;;;5013280;28;20029;-81
2022/01/02 07:24:13;;;;;;;0.00;0.00;;;12.30;99.90;;;;;;5013518;28;20018;-81
2022/01/02 07:26:39;;;;;;;0.08;0.08;;;12.30;99.90;;;;;;5013424;28;20022;-74
2022/01/02 07:29:05;;;;;;;0.20;0.20;;;12.30;99.90;;;;;;5013219;28;20421;-81
2022/01/02 07:31:30;;;;;;;0.17;0.17;;;12.30;99.90;;;;;;5013508;28;20380;-81
2022/01/02 07:33:56;;;;;;;0.57;0.32;;;12.30;99.90;;;;;;5013363;28;20025;-81
2022/01/02 07:36:22;;;;;;;0.88;0.88;;;12.30;99.90;;;;;;5011646;28;20060;-81
2022/01/02 07:38:48;;;;;;;0.00;0.00;;;12.30;99.90;;;;;;5013344;28;20076;-74
2022/01/02 07:41:14;;;;;;;0.00;0.00;;;12.30;99.90;;;;;;5013256;28;20022;-74
2022/01/02 07:43:40;;;;;;;1.52;1.00;;;12.30;99.90;;;;;;5012929;28;20164;-81
2022/01/02 07:46:06;;;;;;;0.00;0.00;;;12.30;99.90;;;;;;5013091;28;20524;-82
2022/01/02 07:48:32;;;;;;;0.20;0.20;;;12.20;99.90;;;;;;5013016;28;20032;-81
2022/01/02 07:50:57;;;;;;;0.00;0.00;;;12.30;99.90;;;;;;5003158;28;20034;-81
2022/01/02 07:53:23;;;;;;;2.17;1.60;;;12.30;99.90;;;;;;4993199;28;20034;-74
2022/01/02 07:55:49;;;;;;;0.10;0.10;;;12.30;99.90;;;;;;4993342;28;20045;-82
2022/01/02 07:58:14;;;;;;;0.00;0.00;;;12.30;99.90;;;;;;4993369;28;20109;-82
2022/01/02 08:00:41;;;;;;;5.90;2.83;;;12.20;99.90;;;;;;4993132;28;20035;-81
2022/01/02 08:03:06;;;;;;;3.60;1.55;;;12.30;99.90;;;;;;5008828;28;20033;-81
2022/01/02 08:05:32;;;;;;;0.98;0.98;;;12.30;99.90;;;;;;4993081;28;20022;-74
2022/01/02 08:07:58;;;;;;;0.00;0.00;;;12.30;99.90;;;;;;4993420;28;20026;-74
2022/01/02 08:10:25;;;;;;;0.10;0.10;;;12.30;99.90;;;;;;4992908;28;20113;-82
2022/01/02 08:12:52;;;;;;;0.55;0.55;;;12.30;99.90;;;;;;5024667;28;20129;-81
2022/01/02 08:15:18;;;;;;;0.15;0.15;;;12.30;99.90;;;;;;4992984;28;20049;-81
2022/01/02 08:17:44;;;;;;;0.00;0.00;;;12.20;99.90;;;;;;4992920;28;20066;-81
2022/01/02 08:20:10;;;;;;;0.20;0.20;;;12.20;99.90;;;;;;4992970;28;20061;-74
2022/01/02 08:22:36;;;;;;;0.52;0.52;;;12.20;99.90;;;;;;4992962;28;20471;-75
2022/01/02 08:25:03;;;;;;;1.02;0.52;;;12.20;99.90;;;;;;4993074;28;20046;-83
2022/01/02 08:27:28;;;;;;;0.30;0.25;;;12.20;99.90;;;;;;5009819;28;20096;-76
2022/01/02 08:29:54;;;;;;;0.32;0.25;;;12.20;99.90;;;;;;5012499;28;20034;-76
2022/01/02 08:32:20;;;;;;;2.55;0.47;;;12.10;99.90;;;;;;5012599;28;20037;-76
2022/01/02 08:34:46;;;;;;;1.65;1.15;;;12.20;99.90;;;;;;5012537;28;20531;-83
2022/01/02 08:37:14;;;;;;;0.00;0.00;;;12.20;99.90;;;;;;5010033;28;20109;-83
2022/01/02 08:39:41;;;;;;;3.35;2.53;;;12.20;99.90;;;;;;5012443;28;20397;-76
2022/01/02 08:42:08;;;;;;;0.13;0.13;;;12.20;99.90;;;;;;5012510;28;20076;-83
2022/01/02 08:44:33;;;;;;;1.65;0.90;;;12.20;99.90;;;;;;5012329;28;20497;-76
2022/01/02 08:46:59;;;;;;;0.70;0.70;;;12.20;99.90;;;;;;5011403;28;20038;-83
2022/01/02 08:49:25;;;;;;;20.83;1.38;;;12.20;99.90;;;;;;5011882;28;20026;-76
2022/01/02 08:51:51;;;;;;;18.83;0.85;;;12.20;99.90;;;;;;4995640;28;20105;-83
2022/01/02 08:54:17;;;;;;;0.10;0.10;;;12.20;99.90;;;;;;4992757;28;20022;-83
2022/01/02 08:56:42;;;;;;;0.90;0.60;;;12.20;99.90;;;;;;4994882;28;20014;-76
2022/01/02 08:59:08;;;;;;;0.55;0.50;;;12.20;99.90;;;;;;5011059;28;20081;-76
2022/01/02 09:01:34;;;;;;;0.03;0.03;;;12.20;99.90;;;;;;4996693;28;20025;-76
2022/01/02 09:03:59;;;;;;;2.25;0.63;;;12.30;99.90;;;;;;4996625;28;20038;-83
2022/01/02 09:06:25;;;;;;;0.00;0.00;;;12.30;99.90;;;;;;4996327;28;20057;-76
2022/01/02 09:08:51;;;;;;;0.98;0.90;;;12.30;99.90;;;;;;5011350;28;20034;-77
2022/01/02 09:11:17;;;;;;;12.95;3.03;;;12.30;99.90;;;;;;5027796;28;20026;-83
2022/01/02 09:13:42;;;;;;;0.13;0.13;;;12.30;99.90;;;;;;4996461;28;20027;-83
2022/01/02 09:16:08;;;;;;;0.90;0.68;;;12.30;99.90;;;;;;4996042;28;20030;-76
2022/01/02 09:18:33;;;;;;;0.63;0.30;;;12.40;99.90;;;;;;4995671;28;20031;-83
2022/01/02 09:20:59;;;;;;;0.55;0.52;;;12.40;99.90;;;;;;4995170;28;20541;-83
2022/01/02 09:23:25;;;;;;;0.00;0.00;;;12.50;99.90;;;;;;5027517;28;20449;-76
2022/01/02 09:25:51;;;;;;;1.13;0.57;;;12.50;99.90;;;;;;4999157;28;20030;-76
2022/01/02 09:28:16;;;;;;;0.10;0.10;;;12.60;99.90;;;;;;5015664;28;20080;-83
2022/01/02 09:30:42;;;;;;;0.00;0.00;;;12.60;99.90;;;;;;5015527;28;20083;-83
2022/01/02 09:33:08;;;;;;;0.00;0.00;;;12.70;99.90;;;;;;5015537;28;20057;-76
2022/01/02 09:35:35;;;;;;;0.90;0.90;;;12.70;99.90;;;;;;5019682;28;20030;-84
2022/01/02 09:38:01;;;;;;;1.02;1.02;;;12.80;99.90;;;;;;5016880;28;20034;-76
2022/01/02 09:40:28;;;;;;;2.38;1.17;;;12.90;99.90;;;;;;5022114;28;20026;-84
2022/01/02 09:42:56;;;;;;;2.20;1.65;;;12.90;99.90;;;;;;5019046;28;20040;-76
2022/01/02 09:45:22;;;;;;;0.80;0.80;;;12.90;99.90;;;;;;5021550;28;20036;-78
2022/01/02 09:47:48;;;;;;;0.30;0.30;;;12.90;99.90;;;;;;5019557;28;20030;-77
2022/01/02 09:50:14;;;;;;;0.28;0.28;;;13.00;99.90;;;;;;5010591;28;20034;-76
2022/01/02 09:52:40;;;;;;;8.57;2.08;;;13.10;99.90;;;;;;4999724;28;20049;-77
2022/01/02 09:55:06;;;;;;;0.90;0.80;;;13.10;99.90;;;;;;4998669;28;20110;-77
2022/01/02 09:57:32;;;;;;;0.20;0.20;;;13.00;99.90;;;;;;5001092;28;20489;-84
2022/01/02 09:59:58;;;;;;;1.48;1.38;;;13.00;99.90;;;;;;4995665;28;20080;-76
2022/01/02 10:02:24;;;;;;;2.10;0.75;;;13.00;99.90;;;;;;4999976;28;20031;-76
2022/01/02 10:05:01;;;;;;;0.00;0.00;;;13.00;99.90;;;;;;5014723;28;20026;-83
2022/01/02 10:07:31;;;;;;;3.45;1.05;;;12.90;99.90;;;;;;5004991;28;20014;-83
2022/01/02 10:09:57;;;;;;;0.90;0.55;;;12.90;99.90;;;;;;4995140;28;20405;-83
2022/01/02 10:12:29;;;;;;;0.00;0.00;;;13.00;99.90;;;;;;4993174;28;20023;-83
2022/01/02 10:15:06;;;;;;;35.20;1.08;;;13.10;99.90;;;;;;4995294;28;20042;-76
2022/01/02 10:18:04;;;;;;;0.20;0.20;;;13.20;99.90;;;;;;4995727;28;20058;-84
2022/01/02 10:20:37;;;;;;;0.30;0.30;;;13.30;99.90;;;;;;4995751;28;20029;-76
2022/01/02 10:23:04;;;;;;;0.15;0.15;;;13.30;99.90;;;;;;4994992;28;20026;-84
2022/01/02 10:25:40;;;;;;;0.45;0.45;;;13.40;99.90;;;;;;5027400;28;20073;-83
2022/01/02 10:28:29;;;;;;;2.53;1.25;;;13.40;99.90;;;;;;5014334;28;20053;-77
2022/01/02 10:31:03;;;;;;;2.95;0.50;;;13.50;99.90;;;;;;5013869;28;20044;-83
2022/01/02 10:33:46;;;;;;;0.75;0.70;;;13.50;99.90;;;;;;5014528;28;20050;-83
2022/01/02 10:36:12;;;;;;;1.48;1.42;;;13.60;99.90;;;;;;5013751;28;20132;-83
2022/01/02 10:38:38;;;;;;;0.65;0.65;;;13.50;99.90;;;;;;5013066;28;20392;-76
2022/01/02 10:41:03;;;;;;;1.13;1.05;;;13.60;99.90;;;;;;5014200;28;20021;-76
2022/01/02 10:43:34;;;;;;;4.57;3.92;;;13.70;99.90;;;;;;5014458;28;20389;-84
2022/01/02 10:46:06;;;;;;;0.00;0.00;;;13.70;99.90;;;;;;5014348;28;20079;-77
2022/01/02 10:48:36;;;;;;;0.47;0.45;;;13.80;99.90;;;;;;5012643;28;20029;-83
2022/01/02 10:51:13;;;;;;;2.22;1.23;;;13.90;99.90;;;;;;5013531;28;20030;-84
2022/01/02 10:53:51;;;;;;;0.00;0.00;;;14.00;99.90;;;;;;5013972;28;20508;-76
2022/01/02 10:56:19;;;;;;;0.38;0.38;;;14.10;99.90;;;;;;5013960;28;20037;-76
2022/01/02 10:58:46;;;;;;;20.08;1.38;;;14.20;99.90;;;;;;5013818;28;20488;-84
2022/01/02 11:01:12;;;;;;;0.15;0.15;;;14.10;99.90;;;;;;5013975;28;20477;-83
2022/01/02 11:03:39;;;;;;;3.40;1.10;;;14.10;99.90;;;;;;5012490;28;20029;-82
2022/01/02 11:06:10;;;;;;;0.00;0.00;;;14.10;99.90;;;;;;5013683;28;20021;-75
2022/01/02 11:08:40;;;;;;;1.30;1.08;;;14.10;99.90;;;;;;5013790;28;20032;-75
2022/01/02 11:11:06;;;;;;;0.00;0.00;;;14.20;99.90;;;;;;5013633;28;20481;-82
2022/01/02 11:13:35;;;;;;;2.30;0.40;;;14.10;99.90;;;;;;5013786;28;20048;-81
2022/01/02 11:16:02;;;;;;;0.10;0.10;;;14.10;99.90;;;;;;5013636;28;20026;-81
2022/01/02 11:18:32;;;;;;;1.52;0.70;;;14.20;99.90;;;;;;5012796;28;20041;-74
2022/01/02 11:20:58;;;;;;;1.80;1.40;;;14.10;99.90;;;;;;5011889;28;20073;-75
2022/01/02 11:23:32;;;;;;;0.35;0.08;;;14.10;99.90;;;;;;5012810;28;20133;-76
2022/01/02 11:26:28;;;;;;;1.02;0.47;;;14.10;99.90;;;;;;5012241;28;20028;-81
2022/01/02 11:28:53;;;;;;;1.73;1.10;;;14.10;99.90;;;;;;5013118;28;20050;-75
2022/01/02 11:31:34;;;;;;;2.38;0.90;;;14.00;99.90;;;;;;5013452;28;20041;-81
2022/01/02 11:34:01;;;;;;;0.17;0.17;;;14.10;99.90;;;;;;5013390;28;20044;-81
2022/01/02 11:36:33;;;;;;;3.88;1.50;;;14.20;99.90;;;;;;5012845;28;20030;-81
2022/01/02 11:39:05;;;;;;;0.00;0.00;;;14.20;99.90;;;;;;5011959;28;20022;-81
2022/01/02 11:41:38;;;;;;;0.47;0.47;;;14.30;99.90;;;;;;5012158;28;20026;-81
2022/01/02 11:44:06;;;;;;;4.35;2.47;;;14.50;99.90;;;;;;5012294;28;20388;-82
2022/01/02 11:46:37;;;;;;;16.15;0.88;;;14.50;99.90;;;;;;5012994;28;20029;-74
2022/01/02 11:49:16;;;;;;;0.40;0.40;;;14.70;99.90;;;;;;5011655;28;20463;-81
2022/01/02 11:52:06;;;;;;;0.38;0.38;;;14.60;99.90;;;;;;5012730;28;20033;-84
2022/01/02 11:54:35;;;;;;;2.10;0.85;;;14.50;99.90;;;;;;5012510;28;20022;-83
2022/01/02 11:57:23;;;;;;;0.30;0.30;;;14.60;99.90;;;;;;5012877;28;20026;-83
2022/01/02 11:59:49;;;;;;;0.25;0.25;;;14.50;99.90;;;;;;5012900;28;20424;-77
2022/01/02 12:02:26;;;;;;;30.60;2.28;;;14.50;99.90;;;;;;5012863;28;20022;-83
2022/01/02 12:05:02;;;;;;;0.00;0.00;;;14.60;99.90;;;;;;5012997;28;20050;-83
2022/01/02 12:07:53;;;;;;;2.85;1.65;;;14.60;99.90;;;;;;5011640;28;20025;-83
2022/01/02 12:10:20;;;;;;;0.03;0.03;;;14.50;99.90;;;;;;5012773;28;20025;-77
2022/01/02 12:13:09;;;;;;;1.42;0.65;;;14.60;99.90;;;;;;5013448;28;20033;-77
2022/01/02 12:15:38;;;;;;;0.75;0.60;;;14.60;99.90;;;;;;5012779;28;20018;-82
2022/01/02 12:18:07;;;;;;;6.72;0.85;;;14.80;99.90;;;;;;5011140;28;20116;-84
2022/01/02 12:20:54;;;;;;;0.00;0.00;;;14.90;99.90;;;;;;5012541;28;20026;-83
2022/01/02 12:23:43;;;;;;;1.13;1.10;;;14.70;99.90;;;;;;5011225;28;20116;-84
2022/01/02 12:26:31;;;;;;;0.03;0.03;;;14.90;99.90;;;;;;5012027;28;20034;-77
2022/01/02 12:29:02;;;;;;;0.75;0.52;;;14.70;99.90;;;;;;5012509;28;20502;-83
2022/01/02 12:31:35;;;;;;;1.33;1.13;;;14.70;99.90;;;;;;5016311;28;20048;-83
2022/01/02 12:34:11;;;;;;;1.38;1.25;;;14.70;99.90;;;;;;5016997;28;20034;-83
2022/01/02 12:36:40;;;;;;;0.57;0.52;;;14.60;99.90;;;;;;5016240;28;20515;-77
2022/01/02 12:39:11;;;;;;;0.00;0.00;;;14.70;99.90;;;;;;5015166;28;20029;-83
2022/01/02 12:41:40;;;;;;;3.15;1.05;;;14.70;99.90;;;;;;5016782;28;20018;-83
2022/01/02 12:44:07;;;;;;;1.05;1.05;;;14.70;99.90;;;;;;5016645;28;20029;-83
2022/01/02 12:46:37;;;;;;;2.22;1.85;;;14.70;99.90;;;;;;5016410;28;20022;-83
2022/01/02 12:49:04;;;;;;;1.15;1.05;;;14.70;99.90;;;;;;5016007;28;20025;-83
2022/01/02 12:51:33;;;;;;;0.20;0.20;;;14.60;99.90;;;;;;5013825;28;20026;-76
2022/01/02 12:54:04;;;;;;;4.28;1.40;;;14.50;99.90;;;;;;4996595;28;20040;-77
2022/01/02 12:56:38;;;;;;;0.20;0.20;;;14.30;99.90;;;;;;4996715;28;20506;-82
2022/01/02 12:59:27;;;;;;;0.35;0.30;;;14.20;99.90;;;;;;4996306;28;20469;-83